Time,TemperatureF,DewpointF,PressureIn,WindDirection,WindDirectionDegrees,WindSpeedMPH,WindSpeedGustMPH,Humidity,HourlyPrecipIn,Conditions,Clouds,dailyrainin,SoftwareType,DateUTC
2013-03-16 00:02:00,52.0,-99.9,-100.00,WNW,296,7.0,11.0,-999,-99.99,,,-99.99,,2013-03-16 07:02:00,
2013-03-16 00:12:00,52.0,-99.9,30.12,WNW,296,7.0,11.0,-999,-99.99,,,-99.99,,2013-03-16 07:12:00,
2013-03-16 01:03:00,51.0,-99.9,-100.00,WSW,243,6.0,10.0,-999,-99.99,,,-99.99,,2013-03-16 08:03:00,
2013-03-16 01:12:00,51.0,-99.9,30.13,WSW,243,6.0,10.0,-999,-99.99,,,-99.99,,2013-03-16 08:12:00,
2013-03-16 05:02:00,49.0,-99.9,-100.00,WNW,291,9.0,15.0,-999,-99.99,,,-99.99,,2013-03-16 12:02:00,
2013-03-16 05:12:00,49.0,-99.9,30.07,WNW,291,9.0,15.0,-999,-99.99,,,-99.99,,2013-03-16 12:12:00,
2013-03-16 06:03:00,49.0,-99.9,-100.00,WNW,302,2.0,3.0,-999,-99.99,,,-99.99,,2013-03-16 13:03:00,
2013-03-16 06:12:00,49.0,-99.9,30.06,WNW,302,2.0,3.0,-999,-99.99,,,-99.99,,2013-03-16 13:12:00,
2013-03-16 10:03:00,48.0,-99.9,-100.00,East,85,1.0,2.0,-999,-99.99,,,-99.99,,2013-03-16 17:03:00,
2013-03-16 10:13:00,48.0,-99.9,30.11,East,85,1.0,2.0,-999,-99.99,,,-99.99,,2013-03-16 17:13:00,
2013-03-16 11:03:00,49.0,-99.9,-100.00,East,80,4.0,6.0,-999,-99.99,,,-99.99,,2013-03-16 18:03:00,
2013-03-16 11:13:00,49.0,-99.9,30.10,East,80,4.0,6.0,-999,-99.99,,,-99.99,,2013-03-16 18:13:00,
2013-03-16 16:03:00,53.0,-99.9,-100.00,WNW,294,10.0,17.0,-999,-99.99,,,-99.99,,2013-03-16 23:03:00,
2013-03-16 16:13:00,53.0,-99.9,30.10,WNW,294,10.0,17.0,-999,-99.99,,,-99.99,,2013-03-16 23:13:00,
2013-03-16 17:02:00,54.0,-99.9,-100.00,West,273,6.0,13.0,-999,-99.99,,,-99.99,,2013-03-17 00:02:00,
2013-03-16 17:13:00,54.0,-99.9,30.09,West,273,6.0,13.0,-999,-99.99,,,-99.99,,2013-03-17 00:13:00,
2013-03-16 21:03:00,53.0,-99.9,-100.00,SSW,208,2.0,5.0,-999,-99.99,,,-99.99,,2013-03-17 04:03:00,
2013-03-16 21:13:00,53.0,-99.9,30.11,SSW,208,2.0,5.0,-999,-99.99,,,-99.99,,2013-03-17 04:13:00,
2013-03-16 22:03:00,53.0,-99.9,-100.00,WSW,249,4.0,9.0,-999,-99.99,,,-99.99,,2013-03-17 05:03:00,
2013-03-16 22:12:00,53.0,-99.9,30.13,WSW,249,4.0,9.0,-999,-99.99,,,-99.99,,2013-03-17 05:12:00,